Time;durP1;ratioP1;P1;durP2;ratioP2;P2;SDS_P1;SDS_P2;PMS_P1;PMS_P2;Temp;Humidity;BMP_temperature;BMP_pressure;BME280_temperature;BME280_humidity;BME280_pressure;Samples;Min_cycle;Max_cycle;Signal;HPM_P1;HPM_P2
2023/02/26 07:26:21;;;;;;;3.37;1.80;;;-3.80;99.90;;;;;;5131776;27;20657;-77
2023/02/26 07:30:07;;;;;;;1.73;1.57;;;-3.70;99.90;;;;;;5112228;27;20524;-77
2023/02/26 07:32:33;;;;;;;2.07;1.87;;;-3.70;99.90;;;;;;5111003;28;20408;-77
2023/02/26 07:37:05;;;;;;;5.20;1.73;;;-3.60;99.90;;;;;;5132657;27;20287;-77
2023/02/26 07:41:07;;;;;;;2.27;2.00;;;-3.30;99.90;;;;;;5132896;27;20606;-77
2023/02/26 07:46:16;;;;;;;5.60;2.30;;;-3.20;99.90;;;;;;5076397;28;21139;-78
2023/02/26 07:49:59;;;;;;;3.67;2.30;;;-3.40;99.90;;;;;;5115126;27;20467;-78
2023/02/26 07:54:13;;;;;;;2.80;1.93;;;-3.20;99.90;;;;;;5093579;28;20615;-78
2023/02/26 07:56:41;;;;;;;4.30;2.80;;;-3.00;99.90;;;;;;5093016;28;20774;-78
2023/02/26 07:59:07;;;;;;;3.77;2.00;;;-2.90;99.90;;;;;;5091791;28;20411;-77
2023/02/26 08:01:33;;;;;;;4.70;2.77;;;-2.90;99.90;;;;;;5092023;28;20417;-78
2023/02/26 08:03:59;;;;;;;9.73;4.70;;;-2.00;99.90;;;;;;5091525;28;20407;-77
2023/02/26 08:06:25;;;;;;;2.93;2.53;;;-2.70;99.90;;;;;;5090637;28;20203;-77
2023/02/26 08:08:51;;;;;;;3.60;2.37;;;-2.70;99.90;;;;;;5092993;28;20407;-78
2023/02/26 08:11:16;;;;;;;7.80;2.27;;;-2.70;99.90;;;;;;5093400;28;20183;-78
2023/02/26 08:13:42;;;;;;;6.23;2.57;;;-2.80;99.90;;;;;;5091555;28;20200;-78
2023/02/26 08:16:08;;;;;;;5.13;3.23;;;-3.00;99.90;;;;;;5092825;28;20542;-85
2023/02/26 08:18:34;;;;;;;5.67;2.73;;;-3.10;99.90;;;;;;5097424;28;20177;-78
2023/02/26 08:20:59;;;;;;;3.23;2.43;;;-3.10;99.90;;;;;;5097536;28;20179;-78
2023/02/26 08:23:25;;;;;;;2.27;2.07;;;-2.50;99.90;;;;;;5096753;28;20275;-78
2023/02/26 08:26:02;;;;;;;3.70;2.70;;;-3.00;99.90;;;;;;5098536;28;20202;-79
2023/02/26 08:28:28;;;;;;;6.17;3.20;;;-3.10;99.90;;;;;;5098497;28;20751;-79
2023/02/26 08:30:54;;;;;;;2.20;2.00;;;-2.30;99.90;;;;;;5096897;28;20489;-79
2023/02/26 08:33:20;;;;;;;3.73;2.20;;;-3.20;99.90;;;;;;5095875;28;20205;-79
2023/02/26 08:35:47;;;;;;;2.70;2.20;;;-3.20;99.90;;;;;;5097030;28;20180;-79
2023/02/26 08:38:12;;;;;;;3.20;2.20;;;-3.10;99.90;;;;;;5096793;28;20219;-79
2023/02/26 08:40:38;;;;;;;4.00;2.20;;;-3.20;99.90;;;;;;5096646;28;20411;-79
2023/02/26 08:43:04;;;;;;;2.30;1.93;;;-1.50;99.90;;;;;;5094465;28;20230;-79
2023/02/26 08:45:29;;;;;;;2.97;2.07;;;-3.00;99.90;;;;;;5093974;28;20179;-78
2023/02/26 08:47:55;;;;;;;3.13;2.00;;;-2.70;99.90;;;;;;5094665;28;20200;-77
2023/02/26 08:50:22;;;;;;;6.33;3.17;;;-3.00;99.90;;;;;;5094887;28;20469;-78
2023/02/26 08:52:47;;;;;;;4.10;2.20;;;-3.00;99.90;;;;;;5093735;28;20204;-75
2023/02/26 08:55:13;;;;;;;3.13;2.57;;;-3.10;99.90;;;;;;5093190;28;20417;-78
2023/02/26 08:57:40;;;;;;;3.60;2.30;;;-3.10;99.90;;;;;;5092320;28;20241;-78
2023/02/26 09:00:09;;;;;;;4.03;1.90;;;-3.10;99.90;;;;;;5094261;28;20191;-79
2023/02/26 09:02:36;;;;;;;4.77;2.23;;;-3.30;99.90;;;;;;5095577;28;20422;-80
2023/02/26 09:06:16;;;;;;;4.00;2.10;;;-3.40;99.90;;;;;;5083301;28;20571;-78
2023/02/26 09:08:42;;;;;;;3.27;1.93;;;-3.50;99.90;;;;;;5089317;28;20819;-80
2023/02/26 09:11:07;;;;;;;2.13;1.93;;;-3.50;99.90;;;;;;5086613;28;20180;-79
2023/02/26 09:13:33;;;;;;;2.33;2.03;;;-3.40;99.90;;;;;;5076488;28;20173;-79
2023/02/26 09:15:58;;;;;;;3.10;2.20;;;-3.20;99.90;;;;;;5077477;28;20263;-79
2023/02/26 09:18:24;;;;;;;6.43;2.17;;;-2.60;99.90;;;;;;5076743;28;20233;-79
2023/02/26 09:20:50;;;;;;;3.03;2.20;;;-2.60;99.90;;;;;;5077467;28;20179;-81
2023/02/26 09:23:16;;;;;;;4.10;1.80;;;;;;;;;;5075531;28;20176;-80
2023/02/26 09:25:41;;;;;;;3.63;2.20;;;-2.70;99.90;;;;;;5075830;28;20700;-79
2023/02/26 09:28:07;;;;;;;1.60;1.50;;;-2.70;99.90;;;;;;5075301;28;20419;-79
2023/02/26 09:30:33;;;;;;;3.87;1.70;;;;;;;;;;5076298;28;20177;-80
2023/02/26 09:32:59;;;;;;;2.70;1.70;;;;;;;;;;5076441;28;20173;-81
2023/02/26 09:35:25;;;;;;;6.13;2.23;;;-3.00;99.90;;;;;;5075810;28;20423;-79
2023/02/26 09:37:51;;;;;;;3.27;1.80;;;;;;;;;;5077044;28;20193;-79
2023/02/26 09:40:35;;;;;;;6.10;1.90;;;-3.20;99.90;;;;;;5078054;28;20246;-81
2023/02/26 09:43:38;;;;;;;5.47;2.00;;;-3.30;99.90;;;;;;5075417;28;20445;-81
2023/02/26 09:46:27;;;;;;;6.00;2.00;;;-3.20;99.90;;;;;;5079030;28;20489;-81
2023/02/26 09:49:02;;;;;;;3.10;2.33;;;-3.10;99.90;;;;;;5076600;28;20847;-82
2023/02/26 09:51:29;;;;;;;2.30;1.80;;;-3.00;99.90;;;;;;5078043;28;20433;-80
2023/02/26 09:53:58;;;;;;;3.30;2.17;;;-3.10;99.90;;;;;;5078146;28;20420;-79
2023/02/26 09:56:26;;;;;;;4.70;2.13;;;-3.10;99.90;;;;;;5076680;28;20902;-78
2023/02/26 09:58:52;;;;;;;4.97;1.80;;;-3.20;99.90;;;;;;5073526;28;20415;-77
2023/02/26 10:01:28;;;;;;;3.80;2.00;;;-3.10;99.90;;;;;;5070792;28;20432;-77
2023/02/26 10:04:12;;;;;;;1.93;1.77;;;-3.30;99.90;;;;;;5071261;28;20433;-77
2023/02/26 10:06:45;;;;;;;2.17;1.80;;;-3.30;99.90;;;;;;5071562;28;20442;-79
2023/02/26 10:09:35;;;;;;;3.37;1.77;;;-3.30;99.90;;;;;;5073015;28;20433;-79
2023/02/26 10:12:26;;;;;;;3.10;1.73;;;-3.20;99.90;;;;;;5073667;28;20408;-79
2023/02/26 10:15:12;;;;;;;1.97;1.50;;;-3.00;99.90;;;;;;5074382;28;20437;-79
2023/02/26 10:18:02;;;;;;;7.30;2.10;;;-2.90;99.90;;;;;;5062645;28;20925;-81
2023/02/26 10:20:46;;;;;;;2.40;2.03;;;-3.00;99.90;;;;;;5061743;28;20514;-80
2023/02/26 10:23:37;;;;;;;3.87;2.00;;;-3.10;99.90;;;;;;5062568;28;20416;-80
2023/02/26 10:26:14;;;;;;;2.10;1.90;;;-3.20;99.90;;;;;;5062577;28;20502;-79
2023/02/26 10:28:40;;;;;;;2.33;2.13;;;;;;;;;;5059816;28;20454;-79
2023/02/26 10:31:12;;;;;;;9.63;4.47;;;;;;;;;;5061598;28;20420;-79
2023/02/26 10:33:51;;;;;;;2.30;1.83;;;-3.00;99.90;;;;;;5061037;28;20174;-79
2023/02/26 10:36:20;;;;;;;2.47;2.27;;;-3.00;99.90;;;;;;5060532;28;20435;-80
2023/02/26 10:38:50;;;;;;;7.27;2.70;;;-3.00;99.90;;;;;;5061706;28;20922;-83
2023/02/26 10:41:20;;;;;;;2.67;2.33;;;-2.90;99.90;;;;;;5063533;28;20493;-83
2023/02/26 10:44:15;;;;;;;2.30;2.10;;;-2.80;99.90;;;;;;5063521;28;20492;-79
2023/02/26 10:46:51;;;;;;;1.80;1.70;;;-3.00;99.90;;;;;;5063997;28;20478;-80
2023/02/26 10:49:17;;;;;;;2.43;1.93;;;;;;;;;;5068097;28;20797;-83
2023/02/26 10:51:44;;;;;;;3.53;2.33;;;;;;;;;;5071463;28;20393;-78
2023/02/26 10:54:33;;;;;;;3.13;2.10;;;-3.10;99.90;;;;;;5070025;28;20200;-78
2023/02/26 10:56:59;;;;;;;2.87;2.57;;;;;;;;;;5060357;28;20436;-79
2023/02/26 10:59:26;;;;;;;5.83;2.37;;;-3.10;99.90;;;;;;5059288;28;20412;-79
2023/02/26 11:01:53;;;;;;;2.80;2.10;;;-2.80;99.90;;;;;;5060725;28;20444;-80
2023/02/26 11:04:22;;;;;;;7.67;2.33;;;-2.90;99.90;;;;;;5061747;28;20471;-80
2023/02/26 11:06:55;;;;;;;3.10;2.07;;;-3.10;99.90;;;;;;5061564;28;20432;-80
2023/02/26 11:09:41;;;;;;;2.57;1.70;;;-2.80;99.90;;;;;;5061407;28;20408;-80
2023/02/26 11:12:14;;;;;;;1.87;1.67;;;-2.60;99.90;;;;;;5061745;28;20404;-79
2023/02/26 11:14:42;;;;;;;1.73;1.63;;;-2.80;99.90;;;;;;5061479;28;20396;-80
2023/02/26 11:17:18;;;;;;;2.10;1.90;;;-2.70;99.90;;;;;;5062652;28;20481;-80
2023/02/26 11:19:55;;;;;;;5.30;2.47;;;-2.70;99.90;;;;;;5059983;28;20461;-80
2023/02/26 11:22:21;;;;;;;2.57;2.10;;;-2.20;99.90;;;;;;5056563;28;20412;-79
2023/02/26 11:24:50;;;;;;;2.20;2.00;;;-1.90;99.90;;;;;;5056151;28;20463;-79
2023/02/26 11:27:20;;;;;;;4.10;2.23;;;-1.20;99.90;;;;;;5056118;28;20436;-79
2023/02/26 11:29:52;;;;;;;2.20;1.97;;;-1.20;99.90;;;;;;5057504;28;20423;-81
2023/02/26 11:32:21;;;;;;;2.93;2.40;;;-0.30;99.90;;;;;;5058381;28;20412;-81
2023/02/26 11:34:49;;;;;;;2.43;2.23;;;-0.30;99.90;;;;;;5060390;28;20962;-80
2023/02/26 11:37:22;;;;;;;1.97;1.87;;;-0.30;99.90;;;;;;5058302;28;20864;-80
2023/02/26 11:39:57;;;;;;;2.30;2.10;;;-0.60;99.90;;;;;;5058095;28;20392;-80
2023/02/26 11:42:24;;;;;;;4.37;2.37;;;-1.00;99.90;;;;;;5058746;28;20408;-80
2023/02/26 11:44:51;;;;;;;4.07;2.20;;;-1.20;99.90;;;;;;5061888;28;20505;-79
2023/02/26 11:47:24;;;;;;;2.50;2.13;;;-1.30;99.90;;;;;;5061144;28;20459;-79
2023/02/26 11:49:54;;;;;;;4.03;2.40;;;-1.40;99.90;;;;;;5062422;28;20396;-79
2023/02/26 11:52:31;;;;;;;2.40;2.00;;;-1.70;99.90;;;;;;5061648;28;20418;-80
2023/02/26 11:55:03;;;;;;;2.33;1.73;;;-1.90;99.90;;;;;;5060920;28;20446;-80
2023/02/26 11:57:31;;;;;;;1.90;1.67;;;-1.90;99.90;;;;;;5061955;28;20446;-79
2023/02/26 11:59:59;;;;;;;3.87;1.80;;;-1.80;99.90;;;;;;5060546;28;20253;-82
2023/02/26 12:02:30;;;;;;;3.20;2.10;;;-1.70;99.90;;;;;;5058884;28;20768;-81
2023/02/26 12:05:01;;;;;;;3.13;2.53;;;-1.80;99.90;;;;;;5062874;28;20463;-81
2023/02/26 12:07:29;;;;;;;2.43;2.10;;;-1.90;99.90;;;;;;5063268;28;20432;-82
2023/02/26 12:09:55;;;;;;;2.70;2.13;;;-2.00;99.90;;;;;;5062726;28;20944;-82
2023/02/26 12:12:30;;;;;;;2.40;2.20;;;-2.00;99.90;;;;;;5061388;28;20413;-81
2023/02/26 12:15:35;;;;;;;2.37;2.17;;;-2.10;99.90;;;;;;5066548;28;20191;-81
2023/02/26 12:18:16;;;;;;;2.50;2.30;;;-2.00;99.90;;;;;;5069654;28;20416;-80
2023/02/26 12:20:55;;;;;;;2.80;1.93;;;-2.00;99.90;;;;;;5071065;28;20418;-81
2023/02/26 12:23:26;;;;;;;2.43;2.23;;;-1.90;99.90;;;;;;5069378;28;20395;-81
2023/02/26 12:26:12;;;;;;;2.30;2.17;;;-1.80;99.90;;;;;;5068229;28;20456;-80
2023/02/26 12:29:00;;;;;;;2.40;2.13;;;-1.70;99.90;;;;;;5061366;28;20747;-82
2023/02/26 12:31:35;;;;;;;3.00;2.47;;;-1.80;99.90;;;;;;5067047;28;20482;-81
2023/02/26 12:34:09;;;;;;;2.43;2.23;;;-1.90;99.90;;;;;;5060843;28;20411;-82
2023/02/26 12:37:01;;;;;;;4.17;2.63;;;-2.00;99.90;;;;;;5060376;28;20833;-81
2023/02/26 12:39:39;;;;;;;2.57;2.37;;;-2.00;99.90;;;;;;5060660;28;20911;-81
2023/02/26 12:42:05;;;;;;;3.03;2.37;;;;;;;;;;5062399;28;20482;-82
2023/02/26 12:44:53;;;;;;;2.70;2.50;;;-1.70;99.90;;;;;;5062259;28;20455;-82
2023/02/26 12:47:40;;;;;;;3.77;2.40;;;-1.70;99.90;;;;;;5063246;28;20432;-82
2023/02/26 12:50:13;;;;;;;6.53;4.07;;;-1.70;99.90;;;;;;5062862;28;20901;-81
2023/02/26 12:53:13;;;;;;;2.93;2.53;;;-1.70;99.90;;;;;;5063061;28;20400;-84
2023/02/26 12:56:06;;;;;;;4.97;3.37;;;-1.50;99.90;;;;;;5062347;28;20458;-83
2023/02/26 12:58:31;;;;;;;4.43;3.20;;;-1.50;99.90;;;;;;5058036;28;20932;-82
2023/02/26 13:01:36;;;;;;;5.73;3.10;;;-1.30;99.90;;;;;;5058893;28;20502;-81
2023/02/26 13:04:29;;;;;;;3.07;2.77;;;-1.40;99.90;;;;;;5056967;28;20193;-80
2023/02/26 13:07:20;;;;;;;2.30;2.10;;;-1.70;99.90;;;;;;5059304;28;20448;-83
2023/02/26 13:09:55;;;;;;;2.93;2.67;;;-1.70;99.90;;;;;;5058939;28;20408;-81
2023/02/26 13:12:52;;;;;;;5.90;3.30;;;-1.70;99.90;;;;;;5058616;28;20811;-80
2023/02/26 13:15:45;;;;;;;3.50;3.20;;;-1.40;99.90;;;;;;5057178;28;20906;-82
2023/02/26 13:18:23;;;;;;;2.60;2.40;;;-1.20;99.90;;;;;;5057029;28;20391;-81
2023/02/26 13:21:03;;;;;;;2.47;2.27;;;-1.10;99.90;;;;;;5054260;28;20439;-81
2023/02/26 13:23:41;;;;;;;4.17;2.93;;;-0.90;99.90;;;;;;5055044;28;20785;-81
2023/02/26 13:26:11;;;;;;;2.50;2.30;;;-0.70;99.90;;;;;;5056471;28;21026;-80
2023/02/26 13:28:53;;;;;;;4.43;3.70;;;-0.80;99.90;;;;;;5057523;28;20412;-80
2023/02/26 13:31:30;;;;;;;2.53;2.33;;;-0.80;99.90;;;;;;5056667;28;20951;-80
2023/02/26 13:34:00;;;;;;;4.87;2.97;;;-0.90;99.90;;;;;;5057362;28;20602;-81
2023/02/26 13:36:28;;;;;;;2.70;2.23;;;-1.10;99.90;;;;;;5059580;28;20436;-82
2023/02/26 13:39:30;;;;;;;4.17;2.97;;;-1.40;99.90;;;;;;5057713;28;20418;-81
2023/02/26 13:42:14;;;;;;;3.73;3.00;;;-1.60;99.90;;;;;;5057215;28;20408;-81
2023/02/26 13:45:18;;;;;;;4.20;3.10;;;-1.80;99.90;;;;;;5059122;28;20440;-81
2023/02/26 13:47:46;;;;;;;4.83;3.50;;;-1.90;99.90;;;;;;5058467;28;20906;-81
2023/02/26 13:50:47;;;;;;;4.57;3.30;;;-2.10;99.90;;;;;;5059909;28;20850;-81
2023/02/26 13:53:32;;;;;;;6.70;3.53;;;-1.90;99.90;;;;;;5062545;28;20416;-81
2023/02/26 13:56:20;;;;;;;3.37;3.07;;;-1.70;99.90;;;;;;5060681;28;20303;-81
2023/02/26 13:58:54;;;;;;;3.67;3.27;;;-1.30;99.90;;;;;;5060807;28;20435;-81
2023/02/26 14:01:30;;;;;;;4.57;3.70;;;0.00;99.90;;;;;;5060650;28;20427;-82
2023/02/26 14:04:25;;;;;;;4.10;3.30;;;1.20;99.90;;;;;;5058662;28;20412;-80
2023/02/26 14:06:56;;;;;;;3.90;3.03;;;2.40;99.90;;;;;;5058721;28;20439;-80
2023/02/26 14:09:21;;;;;;;3.33;2.83;;;2.70;99.90;;;;;;5057971;28;20422;-80
2023/02/26 14:12:04;;;;;;;2.97;2.70;;;3.20;99.90;;;;;;5058546;28;20412;-81
2023/02/26 14:14:34;;;;;;;3.43;3.13;;;2.50;99.90;;;;;;5057198;28;20197;-80
2023/02/26 14:17:08;;;;;;;5.30;3.63;;;1.40;99.90;;;;;;5057317;28;20193;-80
2023/02/26 14:19:51;;;;;;;3.10;2.90;;;0.60;99.90;;;;;;5058279;28;20182;-80
2023/02/26 14:22:33;;;;;;;3.67;3.30;;;-0.30;99.90;;;;;;5060114;28;20169;-81
2023/02/26 14:25:14;;;;;;;4.37;3.30;;;-1.00;99.90;;;;;;5060437;28;20220;-81
2023/02/26 14:27:42;;;;;;;3.90;3.50;;;-1.50;99.90;;;;;;5061584;28;20438;-81
2023/02/26 14:30:08;;;;;;;4.17;3.57;;;-1.70;99.90;;;;;;5058984;28;20488;-81
2023/02/26 14:32:33;;;;;;;6.00;3.20;;;-1.70;99.90;;;;;;5058486;28;20452;-81
2023/02/26 14:35:23;;;;;;;2.93;2.57;;;-1.50;99.90;;;;;;5058969;28;20181;-81
2023/02/26 14:38:17;;;;;;;2.93;2.73;;;-1.30;99.90;;;;;;5057840;28;20681;-80
2023/02/26 14:40:48;;;;;;;3.27;2.70;;;-1.20;99.90;;;;;;5058480;28;20416;-81
2023/02/26 14:43:37;;;;;;;3.50;2.60;;;-1.20;99.90;;;;;;5058249;28;20416;-80
2023/02/26 14:46:04;;;;;;;2.60;2.40;;;-1.60;99.90;;;;;;5059147;28;20499;-84
2023/02/26 14:48:31;;;;;;;4.27;2.30;;;-1.60;99.90;;;;;;5059761;28;20427;-85
2023/02/26 14:51:09;;;;;;;3.67;3.37;;;-1.50;99.90;;;;;;5059370;28;21040;-84
2023/02/26 14:53:54;;;;;;;2.87;2.37;;;-1.50;99.90;;;;;;5060750;28;20475;-82
2023/02/26 14:57:05;;;;;;;3.73;3.30;;;-1.80;99.90;;;;;;5060658;28;20535;-84
2023/02/26 15:06:05;;;;;;;7.67;3.07;;;-2.20;99.90;;;;;;5118256;27;20540;-82
2023/02/26 15:28:24;;;;;;;4.47;2.57;;;-2.00;99.90;;;;;;5136460;27;20625;-79
2023/02/26 15:33:36;;;;;;;2.97;2.67;;;;;;;;;;5133866;27;20275;-80
2023/02/26 15:50:02;;;;;;;3.07;2.70;;;;;;;;;;5145877;27;20346;-79
